createdAt,value
2022-09-11T00:00:05.481Z,13.38
2022-09-11T00:01:12.767Z,13.34
2022-09-11T00:02:16.699Z,13.37
2022-09-11T00:03:28.528Z,13.34
2022-09-11T00:04:33.757Z,13.28
2022-09-11T00:05:40.837Z,13.25
2022-09-11T00:06:44.122Z,13.24
2022-09-11T00:07:48.298Z,13.25
2022-09-11T00:08:58.425Z,13.27
2022-09-11T00:10:01.264Z,13.27
2022-09-11T00:11:10.419Z,13.24
2022-09-11T00:12:13.379Z,13.22
2022-09-11T00:13:21.636Z,13.22
2022-09-11T00:14:29.110Z,13.17
2022-09-11T00:15:40.083Z,13.24
2022-09-11T00:16:46.161Z,13.25
2022-09-11T00:17:49.000Z,13.29
2022-09-11T00:18:51.854Z,13.25
2022-09-11T00:19:54.702Z,13.24
2022-09-11T00:20:58.489Z,13.24
2022-09-11T00:22:01.416Z,13.24
2022-09-11T00:23:07.496Z,13.24
2022-09-11T00:24:10.582Z,13.24
2022-09-11T00:25:13.432Z,13.25
2022-09-11T00:26:19.447Z,13.25
2022-09-11T00:27:22.414Z,13.25
2022-09-11T00:28:29.357Z,13.26
2022-09-11T00:29:32.714Z,13.28
2022-09-11T00:30:35.666Z,13.29
2022-09-11T00:31:38.656Z,13.30
2022-09-11T00:32:41.559Z,13.29
2022-09-11T00:33:44.972Z,13.28
2022-09-11T00:34:47.994Z,13.27
2022-09-11T00:36:04.123Z,13.31
2022-09-11T00:37:07.426Z,13.28
2022-09-11T00:38:14.180Z,13.27
2022-09-11T00:39:19.884Z,13.29
2022-09-11T00:40:23.446Z,13.28
2022-09-11T00:41:31.422Z,13.28
2022-09-11T00:42:34.474Z,13.27
2022-09-11T00:43:56.048Z,13.25
2022-09-11T00:45:02.471Z,13.25
2022-09-11T00:46:06.178Z,13.23
2022-09-11T00:47:10.099Z,13.16
2022-09-11T00:48:18.332Z,13.15
2022-09-11T00:49:35.226Z,13.11
2022-09-11T00:50:38.230Z,13.13
2022-09-11T00:51:41.919Z,13.15
2022-09-11T00:53:08.252Z,13.20
2022-09-11T00:54:14.884Z,13.20
2022-09-11T00:55:21.045Z,13.16
2022-09-11T00:56:28.459Z,13.13
2022-09-11T00:57:36.894Z,13.15
2022-09-11T00:58:44.432Z,13.09
2022-09-11T00:59:48.559Z,13.08
2022-09-11T01:00:55.194Z,13.07
2022-09-11T01:01:58.331Z,13.05
2022-09-11T01:03:01.395Z,13.08
2022-09-11T01:04:06.222Z,13.11
2022-09-11T01:05:10.837Z,13.05
2022-09-11T01:06:14.737Z,13.03
2022-09-11T01:07:19.214Z,13.01
2022-09-11T01:08:22.963Z,12.99
2022-09-11T01:09:30.041Z,12.97
2022-09-11T01:10:32.935Z,12.96
2022-09-11T01:12:13.292Z,12.98
2022-09-11T01:13:34.016Z,12.97
2022-09-11T01:14:55.705Z,12.95
2022-09-11T01:16:20.101Z,12.99
2022-09-11T01:17:44.471Z,12.98
2022-09-11T01:19:13.975Z,13.04
2022-09-11T01:20:28.483Z,12.98
2022-09-11T01:21:52.651Z,12.95
2022-09-11T01:23:25.596Z,13.00
2022-09-11T01:24:53.176Z,12.99
2022-09-11T01:26:25.147Z,12.98
2022-09-11T01:27:37.563Z,12.98
2022-09-11T01:28:53.125Z,12.98
2022-09-11T01:30:02.238Z,13.04
2022-09-11T01:31:11.978Z,13.04
2022-09-11T01:32:19.149Z,13.03
2022-09-11T01:33:51.236Z,12.99
2022-09-11T01:35:02.673Z,12.91
2022-09-11T01:36:07.268Z,12.94
2022-09-11T01:37:24.352Z,12.87
2022-09-11T01:38:33.258Z,12.87
2022-09-11T01:39:45.083Z,12.82
2022-09-11T01:40:55.995Z,12.78
2022-09-11T01:42:06.289Z,12.67
2022-09-11T01:43:14.474Z,12.78
2022-09-11T01:44:37.580Z,12.76
2022-09-11T01:45:46.658Z,12.85
2022-09-11T01:46:52.971Z,12.78
2022-09-11T01:48:00.526Z,12.80
2022-09-11T01:49:11.917Z,12.73
2022-09-11T01:50:19.448Z,12.75
2022-09-11T01:51:29.421Z,12.72
2022-09-11T01:52:45.372Z,12.71
2022-09-11T01:53:51.817Z,12.78
2022-09-11T01:55:01.553Z,12.76
2022-09-11T01:56:36.496Z,12.79
2022-09-11T01:57:56.627Z,12.82
2022-09-11T01:59:04.848Z,12.85
2022-09-11T02:00:11.922Z,12.89
2022-09-11T02:01:21.506Z,12.91
2022-09-11T02:02:39.008Z,12.90
2022-09-11T02:03:53.748Z,13.04
2022-09-11T02:05:23.609Z,13.07
2022-09-11T02:06:37.304Z,13.10
2022-09-11T02:07:55.698Z,13.14
2022-09-11T02:09:03.387Z,13.20
2022-09-11T02:10:18.076Z,13.27
2022-09-11T02:11:22.075Z,13.19
2022-09-11T02:12:29.781Z,13.20
2022-09-11T02:13:53.110Z,13.17
2022-09-11T02:14:56.178Z,13.18
2022-09-11T02:16:23.790Z,13.13
2022-09-11T02:17:36.022Z,13.11
2022-09-11T02:18:38.836Z,13.21
2022-09-11T02:19:42.291Z,13.24
2022-09-11T02:20:48.117Z,13.24
2022-09-11T02:21:51.413Z,13.28
2022-09-11T02:22:54.758Z,13.27
2022-09-11T02:23:57.974Z,13.26
2022-09-11T02:25:02.883Z,13.28
2022-09-11T02:26:08.222Z,13.30
2022-09-11T02:27:17.175Z,13.29
2022-09-11T02:28:20.038Z,13.30
2022-09-11T02:29:24.674Z,13.27
2022-09-11T02:30:27.485Z,13.21
2022-09-11T02:31:30.645Z,13.18
2022-09-11T02:32:37.403Z,13.23
2022-09-11T02:33:44.177Z,13.20
2022-09-11T02:34:48.771Z,13.17
2022-09-11T02:35:56.500Z,13.14
2022-09-11T02:37:03.565Z,13.14
2022-09-11T02:38:21.711Z,13.15
2022-09-11T02:39:47.884Z,13.13
2022-09-11T02:41:11.434Z,13.22
2022-09-11T02:42:32.748Z,13.25
2022-09-11T02:43:50.807Z,13.27
2022-09-11T02:45:14.086Z,13.24
2022-09-11T02:46:30.174Z,13.29
2022-09-11T02:47:42.157Z,13.27
2022-09-11T02:48:50.782Z,13.28
2022-09-11T02:50:14.576Z,13.32
2022-09-11T02:51:44.765Z,13.33
2022-09-11T02:53:05.674Z,13.40
2022-09-11T02:54:43.603Z,13.32
2022-09-11T02:56:17.062Z,13.34
2022-09-11T02:57:33.621Z,13.40
2022-09-11T02:59:10.185Z,13.39
2022-09-11T03:00:13.998Z,13.41
2022-09-11T03:01:17.320Z,13.41
2022-09-11T03:02:21.275Z,13.39
2022-09-11T03:03:24.168Z,13.45
2022-09-11T03:04:27.132Z,13.40
2022-09-11T03:05:33.401Z,13.44
2022-09-11T03:06:36.263Z,13.50
2022-09-11T03:07:39.453Z,13.51
2022-09-11T03:08:42.347Z,13.45
2022-09-11T03:09:45.479Z,13.40
2022-09-11T03:10:50.494Z,13.42
2022-09-11T03:11:54.336Z,13.51
2022-09-11T03:12:59.920Z,13.56
2022-09-11T03:14:02.846Z,13.56
2022-09-11T03:15:07.254Z,13.57
2022-09-11T03:16:10.750Z,13.60
2022-09-11T03:17:13.728Z,13.73
2022-09-11T03:18:16.721Z,13.77
2022-09-11T03:19:19.512Z,13.74
2022-09-11T03:20:22.533Z,13.83
2022-09-11T03:21:25.559Z,13.89
2022-09-11T03:22:28.349Z,13.81
2022-09-11T03:23:31.598Z,13.72
2022-09-11T03:24:34.847Z,13.81
2022-09-11T03:25:37.771Z,13.77
2022-09-11T03:26:41.355Z,13.77
2022-09-11T03:27:44.350Z,13.76
2022-09-11T03:28:47.503Z,13.74
2022-09-11T03:29:50.451Z,13.75
2022-09-11T03:30:53.315Z,13.72
2022-09-11T03:31:57.624Z,13.76
2022-09-11T03:33:03.223Z,13.67
2022-09-11T03:34:06.666Z,13.60
2022-09-11T03:35:10.181Z,13.55
2022-09-11T03:36:13.820Z,13.57
2022-09-11T03:37:16.724Z,13.56
2022-09-11T03:38:20.132Z,13.60
2022-09-11T03:39:23.060Z,13.55
2022-09-11T03:40:26.526Z,13.60
2022-09-11T03:41:29.355Z,13.65
2022-09-11T03:42:33.657Z,13.56
2022-09-11T03:43:36.561Z,13.48
2022-09-11T03:44:39.841Z,13.47
2022-09-11T03:45:43.586Z,13.46
2022-09-11T03:46:46.470Z,13.49
2022-09-11T03:47:51.389Z,13.48
2022-09-11T03:48:55.085Z,13.52
2022-09-11T03:49:57.869Z,13.47
2022-09-11T03:51:00.709Z,13.41
2022-09-11T03:52:04.004Z,13.47
2022-09-11T03:53:06.874Z,13.49
2022-09-11T03:54:10.194Z,13.42
2022-09-11T03:55:13.305Z,13.35
2022-09-11T03:56:16.374Z,13.33
2022-09-11T03:57:19.245Z,13.32
2022-09-11T03:58:22.200Z,13.39
2022-09-11T03:59:25.495Z,13.37
2022-09-11T04:00:28.596Z,13.41
2022-09-11T04:01:31.411Z,13.36
2022-09-11T04:02:34.269Z,13.35
2022-09-11T04:03:37.108Z,13.40
2022-09-11T04:04:39.973Z,13.37
2022-09-11T04:05:44.428Z,13.30
2022-09-11T04:06:47.339Z,13.27
2022-09-11T04:07:52.421Z,13.25
2022-09-11T04:08:55.367Z,13.29
2022-09-11T04:09:58.701Z,13.39
2022-09-11T04:11:05.302Z,13.38
2022-09-11T04:12:08.216Z,13.31
2022-09-11T04:13:12.442Z,13.29
2022-09-11T04:14:15.832Z,13.25
2022-09-11T04:15:18.737Z,13.26
2022-09-11T04:16:21.708Z,13.26
2022-09-11T04:17:24.817Z,13.22
2022-09-11T04:18:28.470Z,13.26
2022-09-11T04:19:31.466Z,13.27
2022-09-11T04:20:34.586Z,13.37
2022-09-11T04:21:37.472Z,13.37
2022-09-11T04:22:41.259Z,13.31
2022-09-11T04:23:45.827Z,13.25
2022-09-11T04:24:48.650Z,13.24
2022-09-11T04:25:52.832Z,13.23
2022-09-11T04:27:00.483Z,13.22
2022-09-11T04:28:04.271Z,13.24
2022-09-11T04:29:07.314Z,13.24
2022-09-11T04:30:10.532Z,13.21
2022-09-11T04:31:14.997Z,13.23
2022-09-11T04:32:18.293Z,13.24
2022-09-11T04:33:22.127Z,13.23
2022-09-11T04:34:25.646Z,13.23
2022-09-11T04:35:28.553Z,13.22
2022-09-11T04:36:31.443Z,13.25
2022-09-11T04:37:35.848Z,13.24
2022-09-11T04:38:40.097Z,13.32
2022-09-11T04:39:43.569Z,13.31
2022-09-11T04:40:46.657Z,13.43
2022-09-11T04:41:53.321Z,13.37
2022-09-11T04:42:56.187Z,13.36
2022-09-11T04:44:04.773Z,13.32
2022-09-11T04:45:08.513Z,13.47
2022-09-11T04:46:17.026Z,13.46
2022-09-11T04:47:19.896Z,13.46
2022-09-11T04:48:22.703Z,13.45
2022-09-11T04:49:25.590Z,13.47
2022-09-11T04:50:29.254Z,13.44
2022-09-11T04:51:35.164Z,13.46
2022-09-11T04:52:37.973Z,13.60
2022-09-11T04:53:40.850Z,13.61
2022-09-11T04:54:43.679Z,13.56
2022-09-11T04:55:46.590Z,13.56
2022-09-11T04:56:50.255Z,13.53
2022-09-11T04:57:54.236Z,13.57
2022-09-11T04:59:02.775Z,13.59
2022-09-11T05:00:07.067Z,13.57
2022-09-11T05:01:15.797Z,13.56
2022-09-11T05:02:23.109Z,13.61
2022-09-11T05:03:26.227Z,13.61
2022-09-11T05:04:32.539Z,13.60
2022-09-11T05:05:35.327Z,13.59
2022-09-11T05:06:38.292Z,13.59
2022-09-11T05:07:41.173Z,13.60
2022-09-11T05:08:46.902Z,13.60
2022-09-11T05:09:49.784Z,13.60
2022-09-11T05:10:53.460Z,13.59
2022-09-11T05:11:57.417Z,13.58
2022-09-11T05:13:00.223Z,13.58
2022-09-11T05:14:03.451Z,13.61
2022-09-11T05:15:06.838Z,13.60
2022-09-11T05:16:12.483Z,13.66
2022-09-11T05:17:15.259Z,13.66
2022-09-11T05:18:18.200Z,13.66
2022-09-11T05:19:25.913Z,13.67
2022-09-11T05:20:28.724Z,13.68
2022-09-11T05:21:33.712Z,13.69
2022-09-11T05:22:36.692Z,13.68
2022-09-11T05:23:40.843Z,13.75
2022-09-11T05:24:43.898Z,13.73
2022-09-11T05:25:47.496Z,13.71
2022-09-11T05:26:50.394Z,13.71
2022-09-11T05:27:53.193Z,13.72
2022-09-11T05:28:58.598Z,13.82
2022-09-11T05:30:02.556Z,13.85
2022-09-11T05:31:16.606Z,13.81
2022-09-11T05:32:19.537Z,13.79
2022-09-11T05:33:24.006Z,13.79
2022-09-11T05:34:30.184Z,13.80
2022-09-11T05:35:33.051Z,13.80
2022-09-11T05:36:36.378Z,13.76
2022-09-11T05:37:39.287Z,13.80
2022-09-11T05:38:43.222Z,13.76
2022-09-11T05:39:46.500Z,13.75
2022-09-11T05:40:51.578Z,13.77
2022-09-11T05:41:55.706Z,13.74
2022-09-11T05:42:58.574Z,13.77
2022-09-11T05:44:01.566Z,13.78
2022-09-11T05:45:04.854Z,13.80
2022-09-11T05:46:11.510Z,13.85
2022-09-11T05:47:14.579Z,13.88
2022-09-11T05:48:17.400Z,13.86
2022-09-11T05:49:21.995Z,13.87
2022-09-11T05:50:25.888Z,13.94
2022-09-11T05:51:28.715Z,14.01
2022-09-11T05:52:32.331Z,14.05
2022-09-11T05:53:35.081Z,14.05
2022-09-11T05:54:38.111Z,14.07
2022-09-11T05:55:44.574Z,14.06
2022-09-11T05:56:47.514Z,14.06
2022-09-11T05:57:52.762Z,14.09
2022-09-11T05:58:56.045Z,14.13
2022-09-11T05:59:59.081Z,14.23
2022-09-11T06:01:13.741Z,14.30
2022-09-11T06:02:16.823Z,14.35
2022-09-11T06:03:19.623Z,14.37
2022-09-11T06:04:22.564Z,14.41
2022-09-11T06:05:25.449Z,14.50
2022-09-11T06:06:29.627Z,14.51
2022-09-11T06:07:32.414Z,14.64
2022-09-11T06:08:36.555Z,14.69
2022-09-11T06:09:39.843Z,14.73
2022-09-11T06:10:49.963Z,14.77
2022-09-11T06:11:53.529Z,14.80
2022-09-11T06:12:57.620Z,14.81
2022-09-11T06:14:01.418Z,14.81
2022-09-11T06:15:04.594Z,14.83
2022-09-11T06:16:18.564Z,14.85
2022-09-11T06:17:21.994Z,14.84
2022-09-11T06:18:24.866Z,14.87
2022-09-11T06:19:27.619Z,14.89
2022-09-11T06:20:30.415Z,14.90
2022-09-11T06:21:33.266Z,14.89
2022-09-11T06:22:38.147Z,14.91
2022-09-11T06:23:40.985Z,14.93
2022-09-11T06:24:43.922Z,14.99
2022-09-11T06:25:47.396Z,15.06
2022-09-11T06:27:09.270Z,15.15
2022-09-11T06:28:12.105Z,15.28
2022-09-11T06:29:16.318Z,15.41
2022-09-11T06:30:19.373Z,15.48
2022-09-11T06:31:24.592Z,15.56
2022-09-11T06:32:27.406Z,15.59
2022-09-11T06:33:36.384Z,15.61
2022-09-11T06:34:39.325Z,15.60
2022-09-11T06:35:42.206Z,15.55
2022-09-11T06:36:48.652Z,15.53
2022-09-11T06:37:54.240Z,15.56
2022-09-11T06:38:58.560Z,15.63
2022-09-11T06:40:02.405Z,15.65
2022-09-11T06:41:07.194Z,15.71
2022-09-11T06:42:10.941Z,15.77
2022-09-11T06:43:15.349Z,15.82
2022-09-11T06:44:18.780Z,15.85
2022-09-11T06:45:21.639Z,15.87
2022-09-11T06:46:25.538Z,15.94
2022-09-11T06:47:29.137Z,16.01
2022-09-11T06:48:32.264Z,16.11
2022-09-11T06:49:35.696Z,16.09
2022-09-11T06:50:41.426Z,16.06
2022-09-11T06:51:44.241Z,16.09
2022-09-11T06:52:47.076Z,16.07
2022-09-11T06:53:55.738Z,16.05
2022-09-11T06:54:58.734Z,16.05
2022-09-11T06:56:02.805Z,16.09
2022-09-11T06:57:06.355Z,16.17
2022-09-11T06:58:09.503Z,16.23
2022-09-11T06:59:12.402Z,16.31
2022-09-11T07:00:15.491Z,16.30
2022-09-11T07:01:20.559Z,16.30
2022-09-11T07:02:23.684Z,16.29
2022-09-11T07:03:26.555Z,16.23
2022-09-11T07:04:29.231Z,16.27
2022-09-11T07:05:32.451Z,16.28
2022-09-11T07:06:38.850Z,16.29
2022-09-11T07:07:41.722Z,16.28
2022-09-11T07:08:45.243Z,16.37
2022-09-11T07:10:50.922Z,16.39
2022-09-11T07:11:54.148Z,16.45
2022-09-11T07:12:58.246Z,16.50
2022-09-11T07:14:06.274Z,16.53
2022-09-11T07:15:10.118Z,16.57
2022-09-11T07:16:13.658Z,16.61
2022-09-11T07:17:19.150Z,16.61
2022-09-11T07:18:22.572Z,16.65
2022-09-11T07:19:26.211Z,16.69
2022-09-11T07:20:29.108Z,16.69
2022-09-11T07:21:34.674Z,16.69
2022-09-11T07:22:37.526Z,16.71
2022-09-11T07:23:41.417Z,16.74
2022-09-11T07:24:44.510Z,16.83
2022-09-11T07:25:49.048Z,16.82
2022-09-11T07:26:51.934Z,16.84
2022-09-11T07:27:55.231Z,16.93
2022-09-11T07:28:59.865Z,17.01
2022-09-11T07:30:03.616Z,16.97
2022-09-11T07:31:20.913Z,16.94
2022-09-11T07:32:24.244Z,17.02
2022-09-11T07:33:27.959Z,17.07
2022-09-11T07:34:30.890Z,17.12
2022-09-11T07:35:37.371Z,17.14
2022-09-11T07:36:40.222Z,17.18
2022-09-11T07:37:43.046Z,17.22
2022-09-11T07:38:47.784Z,17.23
2022-09-11T07:39:50.902Z,17.38
2022-09-11T07:40:57.312Z,17.37
2022-09-11T07:42:00.368Z,17.35
2022-09-11T07:43:04.051Z,17.35
2022-09-11T07:44:07.319Z,17.42
2022-09-11T07:45:11.012Z,17.55
2022-09-11T07:46:14.881Z,17.60
2022-09-11T07:47:17.687Z,17.67
2022-09-11T07:48:20.703Z,17.68
2022-09-11T07:49:23.519Z,17.79
2022-09-11T07:50:26.386Z,17.92
2022-09-11T07:51:29.826Z,18.04
2022-09-11T07:52:32.841Z,18.10
2022-09-11T07:53:41.854Z,18.07
2022-09-11T07:54:44.979Z,18.07
2022-09-11T07:55:47.847Z,18.06
2022-09-11T07:56:50.745Z,18.08
2022-09-11T07:57:54.386Z,18.03
2022-09-11T07:58:57.758Z,18.04
2022-09-11T08:00:00.690Z,17.96
2022-09-11T08:01:05.432Z,17.89
2022-09-11T08:02:12.063Z,17.88
2022-09-11T08:03:15.172Z,17.77
2022-09-11T08:04:18.167Z,17.69
2022-09-11T08:05:21.048Z,17.61
2022-09-11T08:06:25.466Z,17.54
2022-09-11T08:07:31.595Z,17.50
2022-09-11T08:08:35.110Z,17.52
2022-09-11T08:09:37.940Z,17.54
2022-09-11T08:10:41.231Z,17.56
2022-09-11T08:11:47.266Z,17.61
2022-09-11T08:13:58.403Z,17.62
2022-09-11T08:15:01.294Z,17.69
2022-09-11T08:16:04.385Z,17.72
2022-09-11T08:17:07.382Z,17.77
2022-09-11T08:18:10.200Z,17.78
2022-09-11T08:19:22.427Z,17.82
2022-09-11T08:20:26.605Z,17.84
2022-09-11T08:21:29.577Z,17.88
2022-09-11T08:22:32.834Z,17.93
2022-09-11T08:23:37.024Z,17.91
2022-09-11T08:24:43.660Z,17.96
2022-09-11T08:25:46.537Z,17.96
2022-09-11T08:26:49.432Z,17.95
2022-09-11T08:27:53.363Z,17.94
2022-09-11T08:28:57.974Z,17.90
2022-09-11T08:30:00.957Z,17.85
2022-09-11T08:31:05.735Z,17.81
2022-09-11T08:32:08.926Z,17.74
2022-09-11T08:33:12.971Z,17.83
2022-09-11T08:34:15.803Z,17.86
2022-09-11T08:35:19.300Z,17.81
2022-09-11T08:36:22.919Z,17.84
2022-09-11T08:37:26.107Z,17.93
2022-09-11T08:38:29.687Z,17.94
2022-09-11T08:39:32.556Z,18.00
2022-09-11T08:40:38.452Z,18.14
2022-09-11T08:41:57.512Z,18.31
2022-09-11T08:43:03.388Z,18.53
2022-09-11T08:44:16.832Z,18.70
2022-09-11T08:45:24.065Z,18.73
2022-09-11T08:46:35.434Z,18.87
2022-09-11T08:47:41.834Z,19.03
2022-09-11T08:49:24.832Z,19.03
2022-09-11T08:50:27.784Z,19.18
2022-09-11T08:51:32.114Z,19.24
2022-09-11T08:52:37.058Z,19.25
2022-09-11T08:53:40.035Z,19.24
2022-09-11T08:54:44.133Z,19.24
2022-09-11T08:56:02.087Z,19.30
2022-09-11T08:57:26.334Z,19.40
2022-09-11T08:58:58.142Z,19.33
2022-09-11T09:00:20.156Z,19.37
2022-09-11T09:01:37.468Z,19.44
2022-09-11T09:03:21.740Z,19.48
2022-09-11T09:04:42.554Z,19.40
2022-09-11T09:05:55.767Z,19.50
2022-09-11T09:07:26.081Z,19.44
2022-09-11T09:08:41.538Z,19.29
2022-09-11T09:09:59.830Z,19.32
2022-09-11T09:11:20.816Z,19.35
2022-09-11T09:12:58.951Z,19.28
2022-09-11T09:14:23.197Z,19.32
2022-09-11T09:15:46.743Z,19.42
2022-09-11T09:17:09.604Z,19.48
2022-09-11T09:18:36.736Z,19.42
2022-09-11T09:20:04.133Z,19.42
2022-09-11T09:21:13.514Z,19.34
2022-09-11T09:22:38.426Z,19.32
2022-09-11T09:23:59.406Z,19.34
2022-09-11T09:25:10.229Z,19.19
2022-09-11T09:26:19.390Z,19.19
2022-09-11T09:27:34.169Z,19.05
2022-09-11T09:28:46.963Z,18.98
2022-09-11T09:29:56.636Z,18.96
2022-09-11T09:31:06.256Z,18.96
2022-09-11T09:32:21.265Z,18.89
2022-09-11T09:33:35.984Z,18.89
2022-09-11T09:34:42.574Z,18.92
2022-09-11T09:35:45.698Z,18.97
2022-09-11T09:37:12.747Z,19.03
2022-09-11T09:38:35.496Z,19.18
2022-09-11T09:39:38.404Z,19.19
2022-09-11T09:41:10.263Z,19.23
2022-09-11T09:42:22.172Z,19.27
2022-09-11T09:43:59.913Z,19.31
2022-09-11T09:45:37.735Z,19.33
2022-09-11T09:46:48.837Z,19.48
2022-09-11T09:47:53.773Z,19.44
2022-09-11T09:48:56.972Z,19.49
2022-09-11T09:50:00.221Z,19.46
2022-09-11T09:51:04.638Z,19.55
2022-09-11T09:52:31.889Z,19.67
2022-09-11T09:53:45.865Z,19.68
2022-09-11T09:55:00.608Z,19.68
2022-09-11T09:56:05.712Z,19.89
2022-09-11T09:57:11.150Z,20.00
2022-09-11T09:58:15.314Z,20.11
2022-09-11T09:59:27.756Z,20.22
2022-09-11T10:00:33.392Z,20.37
2022-09-11T10:01:54.264Z,20.47
2022-09-11T10:02:58.370Z,20.44
2022-09-11T10:04:11.805Z,20.45
2022-09-11T10:05:35.026Z,20.41
2022-09-11T10:06:38.026Z,20.37
2022-09-11T10:07:55.829Z,20.30
2022-09-11T10:09:03.163Z,20.19
2022-09-11T10:10:21.537Z,20.08
2022-09-11T10:11:29.661Z,20.06
2022-09-11T10:12:33.647Z,20.19
2022-09-11T10:13:42.942Z,20.15
2022-09-11T10:14:57.945Z,20.28
2022-09-11T10:16:04.138Z,20.26
2022-09-11T10:17:07.496Z,20.26
2022-09-11T10:18:29.393Z,20.28
2022-09-11T10:19:36.742Z,20.42
2022-09-11T10:20:39.561Z,20.42
2022-09-11T10:21:42.379Z,20.45
2022-09-11T10:22:46.639Z,20.38
2022-09-11T10:24:01.130Z,20.33
2022-09-11T10:25:06.069Z,20.20
2022-09-11T10:26:18.566Z,20.14
2022-09-11T10:27:23.001Z,20.05
2022-09-11T10:28:33.684Z,19.98
2022-09-11T10:29:36.593Z,19.86
2022-09-11T10:30:54.643Z,19.76
2022-09-11T10:32:06.051Z,19.66
2022-09-11T10:33:24.087Z,19.61
2022-09-11T10:34:33.277Z,19.46
2022-09-11T10:35:36.275Z,19.37
2022-09-11T10:36:39.100Z,19.31
2022-09-11T10:37:44.039Z,19.30
2022-09-11T10:38:48.206Z,19.28
2022-09-11T10:39:52.723Z,19.25
2022-09-11T10:41:00.428Z,19.25
2022-09-11T10:42:27.712Z,19.26
2022-09-11T10:43:56.408Z,19.31
2022-09-11T10:45:14.913Z,19.31
2022-09-11T10:46:30.022Z,19.23
2022-09-11T10:47:33.340Z,19.22
2022-09-11T10:48:36.999Z,19.26
2022-09-11T10:49:40.049Z,19.28
2022-09-11T10:50:44.275Z,19.41
2022-09-11T10:52:20.306Z,19.43
2022-09-11T10:53:23.761Z,19.49
2022-09-11T10:54:38.886Z,19.51
2022-09-11T10:55:48.309Z,19.62
2022-09-11T10:56:58.440Z,19.63
2022-09-11T10:58:16.383Z,19.67
2022-09-11T10:59:25.490Z,19.80
2022-09-11T11:00:36.067Z,19.85
2022-09-11T11:01:39.055Z,20.05
2022-09-11T11:02:47.786Z,20.20
2022-09-11T11:03:52.526Z,20.21
2022-09-11T11:04:57.680Z,20.22
2022-09-11T11:06:09.157Z,20.18
2022-09-11T11:07:25.842Z,20.14
2022-09-11T11:08:35.019Z,20.08
2022-09-11T11:09:54.485Z,20.07
2022-09-11T11:11:22.492Z,19.99
2022-09-11T11:12:32.760Z,19.96
2022-09-11T11:13:56.635Z,19.92
2022-09-11T11:15:20.594Z,19.85
2022-09-11T11:16:48.462Z,19.71
2022-09-11T11:18:19.352Z,19.65
2022-09-11T11:20:00.165Z,19.65
2022-09-11T11:21:37.559Z,19.68
2022-09-11T11:22:58.546Z,19.57
2022-09-11T11:24:22.163Z,19.53
2022-09-11T11:25:43.563Z,19.57
2022-09-11T11:27:15.181Z,19.49
2022-09-11T11:29:00.675Z,19.40
2022-09-11T11:30:19.568Z,19.40
2022-09-11T11:31:51.813Z,19.32
2022-09-11T11:33:32.154Z,19.28
2022-09-11T11:34:47.401Z,19.35
2022-09-11T11:36:02.164Z,19.24
2022-09-11T11:37:24.976Z,19.24
2022-09-11T11:38:51.862Z,19.27
2022-09-11T11:40:15.762Z,19.31
2022-09-11T11:41:27.876Z,19.35
2022-09-11T11:42:37.734Z,19.38
2022-09-11T11:43:44.223Z,19.39
2022-09-11T11:44:54.692Z,19.50
2022-09-11T11:46:02.949Z,19.64
2022-09-11T11:47:11.313Z,19.80
2022-09-11T11:48:36.915Z,19.99
2022-09-11T11:50:06.620Z,20.06
2022-09-11T11:51:17.186Z,20.12
2022-09-11T11:52:27.403Z,20.23
2022-09-11T11:53:34.573Z,20.36
2022-09-11T11:55:01.379Z,20.46
2022-09-11T11:56:37.190Z,20.54
2022-09-11T11:57:47.364Z,20.48
2022-09-11T11:58:56.235Z,20.46
2022-09-11T12:00:09.198Z,20.50
2022-09-11T12:01:21.899Z,20.48
2022-09-11T12:02:51.567Z,20.44
2022-09-11T12:04:10.611Z,20.45
2022-09-11T12:05:25.356Z,20.28
2022-09-11T12:06:29.622Z,20.23
2022-09-11T12:07:36.947Z,20.22
2022-09-11T12:08:44.221Z,20.23
2022-09-11T12:09:49.629Z,20.22
2022-09-11T12:11:01.173Z,20.14
2022-09-11T12:12:07.650Z,20.14
2022-09-11T12:13:17.046Z,20.02
2022-09-11T12:14:34.792Z,19.85
2022-09-11T12:15:38.501Z,19.76
2022-09-11T12:16:41.549Z,19.64
2022-09-11T12:17:45.494Z,19.60
2022-09-11T12:19:06.801Z,19.44
2022-09-11T12:20:12.312Z,19.42
2022-09-11T12:21:24.114Z,19.33
2022-09-11T12:22:33.261Z,19.29
2022-09-11T12:24:00.445Z,19.18
2022-09-11T12:25:03.635Z,19.10
2022-09-11T12:26:09.609Z,19.03
2022-09-11T12:27:34.825Z,19.06
2022-09-11T12:28:38.193Z,18.93
2022-09-11T12:29:43.308Z,18.85
2022-09-11T12:30:58.903Z,18.82
2022-09-11T12:32:02.288Z,18.89
2022-09-11T12:33:47.637Z,18.94
2022-09-11T12:34:50.376Z,18.89
2022-09-11T12:35:54.230Z,18.90
2022-09-11T12:37:05.593Z,18.91
2022-09-11T12:38:09.250Z,18.87
2022-09-11T12:39:33.494Z,18.83
2022-09-11T12:40:56.494Z,18.90
2022-09-11T12:42:23.940Z,18.94
2022-09-11T12:43:46.784Z,19.10
2022-09-11T12:44:49.552Z,19.29
2022-09-11T12:45:52.999Z,19.40
2022-09-11T12:46:58.594Z,19.41
2022-09-11T12:48:10.403Z,19.38
2022-09-11T12:49:22.530Z,19.43
2022-09-11T12:50:30.064Z,19.37
2022-09-11T12:51:38.563Z,19.36
2022-09-11T12:52:51.750Z,19.32
2022-09-11T12:54:00.649Z,19.23
2022-09-11T12:55:21.835Z,19.21
2022-09-11T12:56:27.268Z,19.18
2022-09-11T12:57:36.458Z,19.25
2022-09-11T12:58:45.457Z,19.30
2022-09-11T12:59:55.069Z,19.35
2022-09-11T13:01:16.429Z,19.34
2022-09-11T13:02:43.103Z,19.28
2022-09-11T13:03:56.413Z,19.23
2022-09-11T13:04:59.415Z,19.29
2022-09-11T13:06:07.864Z,19.33
2022-09-11T13:07:43.956Z,19.31
2022-09-11T13:08:52.265Z,19.28
2022-09-11T13:09:57.418Z,19.25
2022-09-11T13:11:54.172Z,19.31
2022-09-11T13:12:58.914Z,19.32
2022-09-11T13:14:02.083Z,19.43
2022-09-11T13:15:05.369Z,19.43
2022-09-11T13:16:44.908Z,19.43
2022-09-11T13:17:48.305Z,19.55
2022-09-11T13:18:55.172Z,19.56
2022-09-11T13:20:07.994Z,19.66
2022-09-11T13:21:10.906Z,19.75
2022-09-11T13:22:27.834Z,19.86
2022-09-11T13:23:33.043Z,19.94
2022-09-11T13:24:35.897Z,20.14
2022-09-11T13:25:41.337Z,20.20
2022-09-11T13:26:45.675Z,20.26
2022-09-11T13:27:54.379Z,20.39
2022-09-11T13:29:00.599Z,20.38
2022-09-11T13:30:06.129Z,20.39
2022-09-11T13:31:19.769Z,20.36
2022-09-11T13:32:23.258Z,20.36
2022-09-11T13:33:31.358Z,20.39
2022-09-11T13:34:36.822Z,20.47
2022-09-11T13:35:45.737Z,20.51
2022-09-11T13:36:52.356Z,20.45
2022-09-11T13:38:18.576Z,20.50
2022-09-11T13:39:21.705Z,20.56
2022-09-11T13:40:42.362Z,20.52
2022-09-11T13:41:49.073Z,20.54
2022-09-11T13:42:52.536Z,20.47
2022-09-11T13:44:00.719Z,20.43
2022-09-11T13:45:05.187Z,20.42
2022-09-11T13:46:21.354Z,20.47
2022-09-11T13:47:29.332Z,20.59
2022-09-11T13:48:32.468Z,20.62
2022-09-11T13:49:39.253Z,20.70
2022-09-11T13:50:42.269Z,20.81
2022-09-11T13:51:47.602Z,20.80
2022-09-11T13:52:54.209Z,20.79
2022-09-11T13:54:33.955Z,20.80
2022-09-11T13:55:36.942Z,20.80
2022-09-11T13:56:51.686Z,20.82
2022-09-11T13:58:06.751Z,20.80
2022-09-11T13:59:42.405Z,20.75
2022-09-11T14:00:47.427Z,20.75
2022-09-11T14:02:01.080Z,20.73
2022-09-11T14:03:07.143Z,20.75
2022-09-11T14:04:11.666Z,20.78
2022-09-11T14:05:23.962Z,20.75
2022-09-11T14:06:29.104Z,20.59
2022-09-11T14:07:34.287Z,20.52
2022-09-11T14:08:40.937Z,20.47
2022-09-11T14:09:48.364Z,20.44
2022-09-11T14:10:54.845Z,20.47
2022-09-11T14:12:02.993Z,20.49
2022-09-11T14:13:14.316Z,20.46
2022-09-11T14:14:28.421Z,20.41
2022-09-11T14:15:40.339Z,20.46
2022-09-11T14:17:02.088Z,20.44
2022-09-11T14:18:07.306Z,20.43
2022-09-11T14:19:22.790Z,20.46
2022-09-11T14:20:25.864Z,20.55
2022-09-11T14:21:34.806Z,20.60
2022-09-11T14:22:37.872Z,20.63
2022-09-11T14:23:44.840Z,20.65
2022-09-11T14:25:03.883Z,20.72
2022-09-11T14:26:39.949Z,20.76
2022-09-11T14:27:43.379Z,20.77
2022-09-11T14:29:00.927Z,20.80
2022-09-11T14:30:30.709Z,20.87
2022-09-11T14:31:39.649Z,20.93
2022-09-11T14:32:42.498Z,20.87
2022-09-11T14:33:48.596Z,20.89
2022-09-11T14:34:51.401Z,20.93
2022-09-11T14:36:07.503Z,20.99
2022-09-11T14:37:16.414Z,21.07
2022-09-11T14:38:22.545Z,21.07
2022-09-11T14:39:43.704Z,21.15
2022-09-11T14:40:57.507Z,21.11
2022-09-11T14:42:01.588Z,21.12
2022-09-11T14:43:06.042Z,21.01
2022-09-11T14:44:13.464Z,20.97
2022-09-11T14:45:26.088Z,20.91
2022-09-11T14:46:28.866Z,20.89
2022-09-11T14:47:31.748Z,20.94
2022-09-11T14:48:35.821Z,21.01
2022-09-11T14:49:38.575Z,21.06
2022-09-11T14:50:45.574Z,21.03